Disclaimer

Please do not use the information listed here in-flight or in-navigation, as they are not provided to us by the airports but are provided by volunteers, so they might be outdated.

Search


Regions


Airport information page

Radio informations:
Tower (TWR) - 118.525 MHz
HANDLING - 130.225 MHz
Approach (APP) - 119.275 MHz

Airport informations:
Latitude: 56° 18' 00.06" N
Longitude: 010° 37' 08.43" E
Elevation: 82 feet - 25 meters
Operating hours: Remarks
Operating agency: Civil government, landing fees and diplomatic clearance may be required
Timezone: UTC+1(+2DT) - Last Sunday in March to last Sunday in October
Fuel: Jet A1, without icing nhibitor.

100/130 MIL Spec, low lead, aviation gasoline (BLUE)

Runway information:
10R/28L - 8865 x 148 feet< - >2702 x 45 meters
10L/28R - 9111 x 75 feet< - >2777 x 23 meters

Recent METARs:
EKAH 201420Z AUTO 08018KT 9999NDV BKN020/// 06/02 Q1025
EKAH 201450Z AUTO 08015KT 9999NDV BKN022/// 06/02 Q1024
EKAH 201520Z AUTO 08016KT 9999NDV BKN022/// 06/02 Q1024

Airport on the map: